Time;durP1;ratioP1;P1;durP2;ratioP2;P2;SDS_P1;SDS_P2;PMS_P1;PMS_P2;Temp;Humidity;BMP_temperature;BMP_pressure;BME280_temperature;BME280_humidity;BME280_pressure;Samples;Min_cycle;Max_cycle;Signal;HPM_P1;HPM_P2
2024/02/18 00:01:41;;;;;;;11.02;7.05;;;13.90;92.20;;;;;;5093290;28;20476;-76
2024/02/18 00:04:06;;;;;;;10.70;7.82;;;13.80;92.20;;;;;;5094396;28;20115;-77
2024/02/18 00:06:32;;;;;;;11.07;7.57;;;13.80;92.20;;;;;;5092711;28;20039;-76
2024/02/18 00:08:57;;;;;;;12.40;8.25;;;13.80;92.20;;;;;;5094556;28;20110;-76
2024/02/18 00:11:23;;;;;;;12.07;8.57;;;13.80;92.20;;;;;;5094408;28;20078;-75
2024/02/18 00:13:48;;;;;;;11.73;8.45;;;13.80;92.20;;;;;;5105339;28;20036;-77
2024/02/18 00:16:14;;;;;;;12.82;8.45;;;13.80;92.10;;;;;;5113613;28;20490;-76
2024/02/18 00:18:39;;;;;;;13.10;8.70;;;13.80;92.20;;;;;;5112643;28;20035;-77
2024/02/18 00:21:05;;;;;;;12.32;8.60;;;13.80;92.20;;;;;;5112474;28;20034;-77
2024/02/18 00:23:30;;;;;;;12.27;8.63;;;13.80;92.20;;;;;;5112025;28;20050;-77
2024/02/18 00:25:56;;;;;;;12.18;8.35;;;13.80;92.10;;;;;;5114727;28;20023;-76
2024/02/18 00:28:22;;;;;;;12.70;8.30;;;13.80;92.20;;;;;;5113064;28;20026;-76
2024/02/18 00:30:49;;;;;;;12.07;8.30;;;13.80;92.10;;;;;;5114034;28;20519;-76
2024/02/18 00:33:15;;;;;;;12.60;8.60;;;13.80;92.10;;;;;;5112633;28;20031;-76
2024/02/18 00:35:41;;;;;;;11.57;8.52;;;13.80;92.10;;;;;;5113857;28;20023;-76
2024/02/18 00:38:07;;;;;;;13.20;9.10;;;13.80;92.10;;;;;;5114086;28;20104;-76
2024/02/18 00:40:32;;;;;;;11.50;8.35;;;13.80;92.10;;;;;;5113826;28;20026;-75
2024/02/18 00:42:57;;;;;;;11.32;8.02;;;13.80;92.20;;;;;;5112486;28;20066;-77
2024/02/18 00:45:23;;;;;;;12.00;8.45;;;13.70;92.10;;;;;;5113963;28;20099;-77
2024/02/18 00:47:48;;;;;;;13.45;9.02;;;13.80;92.20;;;;;;5112607;28;20032;-76
2024/02/18 00:50:14;;;;;;;13.05;8.30;;;13.80;92.10;;;;;;5113890;28;20106;-76
2024/02/18 00:52:40;;;;;;;13.00;8.68;;;13.70;92.10;;;;;;5112193;28;20032;-76
2024/02/18 00:55:07;;;;;;;13.40;8.60;;;13.80;92.20;;;;;;5112015;28;20071;-76
2024/02/18 00:57:32;;;;;;;12.00;9.00;;;13.80;92.20;;;;;;5111253;28;20026;-76
2024/02/18 00:59:58;;;;;;;13.43;9.15;;;13.80;92.10;;;;;;5113627;28;20024;-76
2024/02/18 01:02:23;;;;;;;11.20;7.78;;;13.80;92.20;;;;;;5112068;28;20047;-76
2024/02/18 01:04:49;;;;;;;12.88;8.40;;;13.70;92.20;;;;;;5112550;28;20027;-77
2024/02/18 01:07:14;;;;;;;12.45;8.93;;;13.70;92.20;;;;;;5112227;28;20594;-76
2024/02/18 01:09:40;;;;;;;13.45;8.45;;;13.70;92.20;;;;;;5113615;28;20032;-76
2024/02/18 01:12:05;;;;;;;14.27;8.93;;;13.70;92.20;;;;;;5113366;28;20030;-76
2024/02/18 01:14:31;;;;;;;12.55;8.80;;;13.70;92.20;;;;;;5113257;28;20051;-76
2024/02/18 01:16:58;;;;;;;11.25;8.38;;;13.70;92.20;;;;;;5112050;28;20028;-76
2024/02/18 01:19:23;;;;;;;13.52;9.18;;;13.70;92.10;;;;;;5113116;28;20487;-77
2024/02/18 01:21:49;;;;;;;12.45;8.15;;;13.70;92.20;;;;;;5113223;28;20035;-77
2024/02/18 01:24:14;;;;;;;13.00;8.73;;;13.70;92.20;;;;;;5112074;28;20023;-78
2024/02/18 01:26:40;;;;;;;14.13;8.98;;;13.70;92.10;;;;;;5111949;28;20041;-76
2024/02/18 01:29:06;;;;;;;11.60;8.18;;;13.70;92.10;;;;;;5111539;28;20411;-76
2024/02/18 01:31:32;;;;;;;14.05;9.25;;;13.70;92.10;;;;;;5113025;27;20024;-75
2024/02/18 01:33:57;;;;;;;13.50;9.23;;;13.70;92.20;;;;;;5111432;28;20504;-75
2024/02/18 01:36:23;;;;;;;13.57;8.88;;;13.70;92.20;;;;;;5111493;28;20055;-76
2024/02/18 01:38:48;;;;;;;12.15;8.38;;;13.70;92.10;;;;;;5111342;28;20073;-76
2024/02/18 01:41:14;;;;;;;11.40;8.10;;;13.70;92.10;;;;;;5111522;28;20059;-76
2024/02/18 01:43:39;;;;;;;14.18;9.43;;;13.70;92.10;;;;;;5112511;28;20517;-75
2024/02/18 01:46:05;;;;;;;12.38;9.02;;;13.70;92.10;;;;;;5111346;28;20426;-76
2024/02/18 01:48:34;;;;;;;12.32;8.35;;;13.60;92.10;;;;;;5111528;28;20123;-76
2024/02/18 01:51:00;;;;;;;11.85;8.05;;;13.70;92.10;;;;;;5112746;28;20023;-76
2024/02/18 01:53:26;;;;;;;12.00;8.57;;;13.70;92.10;;;;;;5110891;28;20027;-76
2024/02/18 01:55:52;;;;;;;12.75;8.63;;;13.70;92.10;;;;;;5112226;28;20491;-77
2024/02/18 01:58:18;;;;;;;13.00;9.50;;;13.70;92.10;;;;;;5112489;28;20031;-76
2024/02/18 02:00:44;;;;;;;11.60;8.77;;;13.60;92.10;;;;;;5112498;28;20055;-76
2024/02/18 02:03:10;;;;;;;12.80;8.95;;;13.70;92.10;;;;;;5110892;28;20515;-76
2024/02/18 02:05:41;;;;;;;13.07;8.95;;;13.70;92.10;;;;;;5112502;28;20088;-76
2024/02/18 02:08:07;;;;;;;11.70;8.65;;;13.70;92.10;;;;;;5110887;28;20028;-77
2024/02/18 02:10:33;;;;;;;12.13;8.15;;;13.70;92.10;;;;;;5110942;28;20035;-76
2024/02/18 02:12:58;;;;;;;13.30;9.20;;;13.70;92.10;;;;;;5112131;28;20027;-76
2024/02/18 02:15:24;;;;;;;11.18;8.88;;;13.70;92.00;;;;;;5112297;28;20064;-76
2024/02/18 02:17:50;;;;;;;11.65;8.93;;;13.70;92.10;;;;;;5110805;28;20024;-76
2024/02/18 02:20:16;;;;;;;12.65;9.05;;;13.70;92.10;;;;;;5110724;28;20110;-76
2024/02/18 02:22:41;;;;;;;12.43;8.88;;;13.70;92.10;;;;;;5110411;28;20031;-75
2024/02/18 02:25:09;;;;;;;13.30;9.25;;;13.70;92.10;;;;;;5111121;28;20019;-75
2024/02/18 02:27:37;;;;;;;11.43;8.35;;;13.70;92.10;;;;;;5110753;28;20112;-75
2024/02/18 02:30:04;;;;;;;11.68;8.75;;;13.70;92.00;;;;;;5112080;28;20031;-75
2024/02/18 02:32:31;;;;;;;11.70;8.60;;;13.70;92.00;;;;;;5092985;28;20453;-75
2024/02/18 02:34:58;;;;;;;12.25;8.48;;;13.70;92.10;;;;;;5112125;28;20024;-76
2024/02/18 02:37:23;;;;;;;12.05;8.75;;;13.70;92.30;;;;;;5112002;27;20081;-75
2024/02/18 02:39:50;;;;;;;12.38;9.18;;;13.70;92.00;;;;;;5111970;28;20028;-77
2024/02/18 02:42:16;;;;;;;11.63;8.40;;;13.60;92.00;;;;;;5110394;28;20037;-76
2024/02/18 02:44:42;;;;;;;11.38;8.13;;;13.70;92.00;;;;;;5110637;28;20028;-76
2024/02/18 02:47:07;;;;;;;11.95;8.75;;;13.70;92.00;;;;;;5111612;28;20023;-77
2024/02/18 02:49:33;;;;;;;12.07;8.25;;;13.60;92.00;;;;;;5110201;28;20020;-77
2024/02/18 02:51:58;;;;;;;12.30;8.55;;;13.70;92.10;;;;;;5110181;28;20024;-76
2024/02/18 02:54:24;;;;;;;13.52;8.15;;;13.60;92.00;;;;;;5110308;28;20035;-76
2024/02/18 02:56:49;;;;;;;12.43;8.65;;;13.60;92.00;;;;;;5111685;28;20027;-76
2024/02/18 02:59:15;;;;;;;11.70;8.63;;;13.60;92.00;;;;;;5111280;28;20016;-76
2024/02/18 03:01:40;;;;;;;11.57;8.45;;;13.60;92.00;;;;;;5110025;28;20024;-75
2024/02/18 03:04:06;;;;;;;11.23;8.10;;;13.60;92.10;;;;;;5111937;28;20484;-77
2024/02/18 03:06:31;;;;;;;12.18;8.48;;;13.70;92.10;;;;;;5103139;28;20024;-76
2024/02/18 03:08:56;;;;;;;11.40;8.40;;;13.60;92.00;;;;;;5111224;28;20142;-76
2024/02/18 03:11:22;;;;;;;12.13;8.30;;;13.60;92.00;;;;;;5100921;28;20024;-76
2024/02/18 03:13:48;;;;;;;11.00;8.25;;;13.60;92.00;;;;;;5089514;28;20028;-76
2024/02/18 03:16:13;;;;;;;12.63;8.95;;;13.60;92.00;;;;;;5090769;28;20027;-76
2024/02/18 03:18:40;;;;;;;11.65;8.18;;;13.60;92.00;;;;;;5090647;28;20559;-76
2024/02/18 03:21:06;;;;;;;12.57;9.05;;;13.60;92.00;;;;;;5089378;28;20024;-76
2024/02/18 03:23:32;;;;;;;10.68;7.95;;;13.60;92.00;;;;;;5089129;28;20024;-75
2024/02/18 03:25:58;;;;;;;10.80;7.82;;;13.60;92.00;;;;;;5091131;28;20476;-76
2024/02/18 03:28:25;;;;;;;11.43;8.27;;;13.60;91.90;;;;;;5089220;28;20034;-76
2024/02/18 03:30:51;;;;;;;11.35;8.15;;;13.70;92.00;;;;;;5091062;28;20032;-76
2024/02/18 03:33:20;;;;;;;11.45;8.18;;;13.60;92.00;;;;;;5089217;28;20344;-76
2024/02/18 03:35:46;;;;;;;11.93;8.18;;;13.70;92.00;;;;;;5090724;28;20026;-76
2024/02/18 03:38:11;;;;;;;11.25;7.93;;;13.70;92.00;;;;;;5090685;28;20427;-75
2024/02/18 03:40:37;;;;;;;11.27;8.07;;;13.70;92.00;;;;;;5088940;28;20030;-77
2024/02/18 03:43:04;;;;;;;10.65;7.68;;;13.60;92.00;;;;;;5090333;28;20020;-76
2024/02/18 03:45:29;;;;;;;11.35;7.90;;;13.60;92.00;;;;;;5089388;28;20221;-77
2024/02/18 03:47:55;;;;;;;11.73;8.57;;;13.60;92.00;;;;;;5090942;28;20028;-75
2024/02/18 03:50:21;;;;;;;11.68;8.05;;;13.60;91.90;;;;;;5088899;28;20040;-77
2024/02/18 03:52:46;;;;;;;10.88;8.20;;;13.60;91.90;;;;;;5090410;28;20403;-78
2024/02/18 03:55:12;;;;;;;11.57;7.93;;;13.60;91.90;;;;;;5089287;28;20036;-76
2024/02/18 03:57:39;;;;;;;11.63;8.50;;;13.70;92.00;;;;;;5088995;28;20055;-76
2024/02/18 04:00:07;;;;;;;10.80;7.70;;;13.70;92.00;;;;;;5090690;28;20028;-76
2024/02/18 04:02:38;;;;;;;11.68;7.88;;;13.60;91.90;;;;;;5090599;28;20309;-76
2024/02/18 04:05:05;;;;;;;10.63;7.67;;;13.60;91.90;;;;;;5090727;28;20025;-77
2024/02/18 04:07:31;;;;;;;11.00;8.05;;;13.70;91.90;;;;;;5088954;28;20262;-77
2024/02/18 04:09:56;;;;;;;11.43;8.07;;;13.60;91.90;;;;;;5091012;28;20026;-76
2024/02/18 04:12:22;;;;;;;10.68;7.57;;;13.60;91.90;;;;;;5089532;28;20484;-76
2024/02/18 04:14:48;;;;;;;10.23;7.82;;;13.70;92.00;;;;;;5089279;28;20024;-76
2024/02/18 04:17:14;;;;;;;10.57;7.82;;;13.60;91.90;;;;;;5088952;28;20123;-78
2024/02/18 04:19:39;;;;;;;10.18;7.65;;;13.60;91.90;;;;;;5089430;28;20063;-78
2024/02/18 04:22:05;;;;;;;10.07;7.63;;;13.60;91.90;;;;;;5088649;28;20024;-76
2024/02/18 04:24:30;;;;;;;10.90;8.00;;;13.60;91.90;;;;;;5090465;28;20034;-76
2024/02/18 04:26:56;;;;;;;11.57;7.60;;;13.60;91.90;;;;;;5089009;28;20446;-77
2024/02/18 04:29:21;;;;;;;10.40;7.75;;;13.60;91.90;;;;;;5089053;28;20017;-77
2024/02/18 04:31:46;;;;;;;10.35;7.47;;;13.70;91.90;;;;;;5089760;28;20115;-75
2024/02/18 04:34:12;;;;;;;10.05;7.22;;;13.60;91.90;;;;;;5092313;28;20077;-76
2024/02/18 04:36:38;;;;;;;10.20;7.35;;;13.60;91.90;;;;;;5092469;28;20481;-76
2024/02/18 04:39:05;;;;;;;11.68;8.02;;;13.60;91.80;;;;;;5092423;28;20035;-76
2024/02/18 04:41:31;;;;;;;11.32;8.20;;;13.60;91.90;;;;;;5093930;28;20016;-76
2024/02/18 04:43:56;;;;;;;10.00;7.18;;;13.60;91.90;;;;;;5092495;28;20119;-75
2024/02/18 04:46:22;;;;;;;10.40;7.80;;;13.60;91.90;;;;;;5092494;28;20028;-76
2024/02/18 04:48:47;;;;;;;9.75;7.22;;;13.60;91.90;;;;;;5093630;28;20077;-76
2024/02/18 04:51:13;;;;;;;10.60;7.35;;;13.60;91.90;;;;;;5092147;28;20494;-76
2024/02/18 04:53:39;;;;;;;10.90;7.63;;;13.60;91.90;;;;;;5093474;28;20024;-77
2024/02/18 04:56:05;;;;;;;10.10;7.13;;;13.60;91.80;;;;;;5093704;28;20031;-76
2024/02/18 04:58:30;;;;;;;10.00;7.05;;;13.60;91.80;;;;;;5092528;28;20024;-76
2024/02/18 05:00:56;;;;;;;10.38;7.28;;;13.60;91.90;;;;;;5092294;28;20023;-76
2024/02/18 05:03:22;;;;;;;11.20;7.68;;;13.60;91.70;;;;;;5091747;28;20495;-76
2024/02/18 05:05:47;;;;;;;10.80;7.47;;;13.60;91.80;;;;;;5096310;28;20360;-76
2024/02/18 05:08:13;;;;;;;11.73;7.53;;;13.60;91.60;;;;;;5104407;28;20016;-76
2024/02/18 05:10:39;;;;;;;9.82;6.85;;;13.60;91.70;;;;;;5096549;28;20430;-76
2024/02/18 05:13:05;;;;;;;9.93;6.88;;;13.60;91.80;;;;;;5111968;28;20020;-77
2024/02/18 05:15:31;;;;;;;10.30;7.22;;;13.60;91.80;;;;;;5113226;28;20099;-77
2024/02/18 05:17:56;;;;;;;10.52;7.40;;;13.60;91.60;;;;;;5112152;28;20027;-76
2024/02/18 05:20:22;;;;;;;10.82;7.55;;;13.60;91.60;;;;;;5110634;28;20088;-78
2024/02/18 05:22:47;;;;;;;10.10;7.57;;;13.60;91.70;;;;;;5101960;28;20023;-75
2024/02/18 05:25:13;;;;;;;9.32;7.10;;;13.60;91.70;;;;;;5097635;28;20031;-76
2024/02/18 05:27:38;;;;;;;10.85;7.45;;;13.60;91.20;;;;;;5111070;28;20077;-77
2024/02/18 05:30:04;;;;;;;10.90;7.50;;;13.60;91.50;;;;;;5112007;28;20034;-76
2024/02/18 05:32:30;;;;;;;9.63;6.68;;;13.60;91.40;;;;;;5111414;28;20031;-77
2024/02/18 05:34:55;;;;;;;9.10;6.63;;;13.60;91.40;;;;;;5113331;28;20555;-76
2024/02/18 05:37:21;;;;;;;9.25;6.63;;;13.60;91.50;;;;;;5112576;28;20092;-77
2024/02/18 05:39:46;;;;;;;10.73;6.70;;;13.60;91.60;;;;;;5111858;28;20055;-76
2024/02/18 05:42:12;;;;;;;9.85;6.80;;;13.60;91.60;;;;;;5112778;28;20388;-76
2024/02/18 05:44:37;;;;;;;9.48;6.85;;;13.60;91.70;;;;;;5111580;28;20066;-77
2024/02/18 05:47:03;;;;;;;9.10;6.50;;;13.60;91.60;;;;;;5111565;28;20020;-76
2024/02/18 05:49:28;;;;;;;10.18;7.43;;;13.50;91.50;;;;;;5112523;28;20533;-76
2024/02/18 05:51:54;;;;;;;9.38;6.78;;;13.50;91.50;;;;;;5110771;28;20028;-77
2024/02/18 05:54:20;;;;;;;9.93;7.25;;;13.60;91.60;;;;;;5111575;28;20508;-76
2024/02/18 05:56:47;;;;;;;9.60;6.85;;;13.50;91.50;;;;;;5112687;28;20042;-76
2024/02/18 05:59:12;;;;;;;9.52;6.78;;;13.50;91.50;;;;;;5111199;28;20031;-77
2024/02/18 06:01:38;;;;;;;10.13;6.70;;;13.60;91.50;;;;;;5110884;28;20020;-77
2024/02/18 06:04:03;;;;;;;9.45;6.47;;;13.60;91.50;;;;;;5110971;28;20016;-77
2024/02/18 06:06:29;;;;;;;9.40;6.38;;;13.60;91.50;;;;;;5111052;28;20028;-76
2024/02/18 06:08:55;;;;;;;10.35;7.15;;;13.50;91.50;;;;;;5110997;28;20034;-77
2024/02/18 06:11:20;;;;;;;9.88;6.43;;;13.60;91.40;;;;;;5112359;28;20020;-76
2024/02/18 06:13:46;;;;;;;9.50;6.55;;;13.50;91.40;;;;;;5112249;28;20032;-77
2024/02/18 06:16:12;;;;;;;9.85;7.00;;;13.60;91.50;;;;;;5112530;28;20042;-77
2024/02/18 06:18:38;;;;;;;8.90;6.20;;;13.50;91.50;;;;;;5112144;28;20039;-77
2024/02/18 06:21:04;;;;;;;9.70;6.60;;;13.50;91.80;;;;;;5110952;28;20028;-77
2024/02/18 06:23:30;;;;;;;10.70;6.82;;;13.60;91.50;;;;;;5111752;28;20050;-77
2024/02/18 06:25:56;;;;;;;10.13;6.47;;;13.60;91.50;;;;;;5112515;28;20075;-76
2024/02/18 06:28:22;;;;;;;9.40;6.70;;;13.50;91.40;;;;;;5112326;28;20020;-76
2024/02/18 06:30:47;;;;;;;8.95;6.78;;;13.50;91.40;;;;;;5110440;28;20675;-76
2024/02/18 06:33:13;;;;;;;10.05;6.88;;;13.50;91.10;;;;;;5110662;28;20024;-77
2024/02/18 06:35:38;;;;;;;8.98;6.55;;;13.50;91.10;;;;;;5110624;28;20016;-77
2024/02/18 06:38:04;;;;;;;9.13;6.47;;;13.50;91.30;;;;;;5108861;28;20499;-77
2024/02/18 06:40:29;;;;;;;8.65;6.20;;;13.50;91.30;;;;;;5105890;28;20830;-77
2024/02/18 06:42:54;;;;;;;8.55;5.93;;;13.50;91.30;;;;;;5102628;28;20097;-79
2024/02/18 06:45:20;;;;;;;10.07;6.35;;;13.60;91.40;;;;;;5105909;28;20020;-76
2024/02/18 06:47:47;;;;;;;9.15;6.28;;;13.50;91.30;;;;;;5107073;28;20028;-78
2024/02/18 06:50:13;;;;;;;9.68;6.57;;;13.50;91.40;;;;;;5108772;28;20357;-78
2024/02/18 06:52:39;;;;;;;9.20;6.22;;;13.60;91.40;;;;;;5102631;28;20028;-77
2024/02/18 06:55:05;;;;;;;9.98;6.80;;;13.60;91.30;;;;;;5086107;28;20484;-77
2024/02/18 06:57:31;;;;;;;8.25;6.15;;;13.60;91.50;;;;;;5087133;28;20060;-76
2024/02/18 06:59:57;;;;;;;9.15;6.03;;;13.50;91.70;;;;;;5089293;28;20392;-78
2024/02/18 07:02:23;;;;;;;9.82;6.75;;;13.50;91.50;;;;;;5087052;28;20022;-79
2024/02/18 07:04:49;;;;;;;9.35;6.10;;;13.60;91.50;;;;;;5088917;28;20067;-77
2024/02/18 07:07:15;;;;;;;9.93;6.57;;;13.60;91.50;;;;;;5088559;28;20027;-78
2024/02/18 07:09:42;;;;;;;9.02;6.15;;;13.60;91.20;;;;;;5087288;28;20080;-79
2024/02/18 07:12:08;;;;;;;8.82;5.82;;;13.50;91.20;;;;;;5092684;28;20381;-77
2024/02/18 07:14:34;;;;;;;10.38;5.60;;;13.60;91.30;;;;;;5086694;28;20282;-79
2024/02/18 07:16:59;;;;;;;9.20;6.07;;;13.50;91.40;;;;;;5087402;28;20055;-79
2024/02/18 07:19:25;;;;;;;9.35;6.07;;;13.60;91.30;;;;;;5088442;28;20020;-77
2024/02/18 07:21:50;;;;;;;8.93;6.05;;;13.50;91.40;;;;;;5089470;28;20032;-77
2024/02/18 07:24:16;;;;;;;9.75;6.60;;;13.50;91.40;;;;;;5086700;28;20028;-78
2024/02/18 07:26:41;;;;;;;8.93;5.97;;;13.50;91.40;;;;;;5086209;28;20028;-77
2024/02/18 07:29:07;;;;;;;8.30;5.68;;;13.60;91.20;;;;;;5086349;28;20104;-77
2024/02/18 07:31:36;;;;;;;8.95;6.18;;;13.50;91.40;;;;;;5088067;28;20032;-77
2024/02/18 07:34:02;;;;;;;9.35;6.38;;;13.50;91.40;;;;;;5086123;28;20511;-76
2024/02/18 07:36:28;;;;;;;9.05;6.35;;;13.60;91.00;;;;;;5084646;28;20067;-79
2024/02/18 07:38:53;;;;;;;8.85;6.10;;;13.60;90.90;;;;;;5087536;28;20047;-77
2024/02/18 07:41:19;;;;;;;8.98;5.95;;;13.50;91.00;;;;;;5086708;28;20229;-77
2024/02/18 07:43:45;;;;;;;8.93;6.22;;;13.50;90.80;;;;;;5087307;28;20103;-75
2024/02/18 07:46:11;;;;;;;9.90;6.10;;;13.50;90.80;;;;;;5086423;28;20183;-76
2024/02/18 07:48:37;;;;;;;8.48;5.97;;;13.50;90.80;;;;;;5085050;28;20020;-77
2024/02/18 07:51:02;;;;;;;9.43;6.07;;;13.60;90.90;;;;;;5088487;28;20115;-79
2024/02/18 07:53:28;;;;;;;9.00;5.80;;;13.50;90.70;;;;;;5088420;28;20063;-76
2024/02/18 07:55:53;;;;;;;8.88;5.78;;;13.50;90.80;;;;;;5083513;28;20122;-76
2024/02/18 07:58:19;;;;;;;8.98;6.03;;;13.50;90.70;;;;;;5086509;28;20508;-76
2024/02/18 08:00:44;;;;;;;8.55;5.63;;;13.50;90.90;;;;;;5085904;28;20373;-75
2024/02/18 08:03:10;;;;;;;7.75;5.38;;;13.60;90.90;;;;;;5098622;28;20097;-77
2024/02/18 08:10:39;;;;;;;8.85;5.78;;;13.60;90.90;;;;;;5032854;28;20064;-78
2024/02/18 08:13:04;;;;;;;8.27;5.50;;;13.50;91.00;;;;;;5033623;28;20022;-79
2024/02/18 08:15:29;;;;;;;9.48;6.05;;;13.50;90.80;;;;;;5032653;28;20474;-78
2024/02/18 08:17:55;;;;;;;9.13;5.93;;;13.50;90.80;;;;;;5032488;28;20029;-78
2024/02/18 08:20:21;;;;;;;8.48;5.20;;;13.60;91.10;;;;;;5029971;28;20038;-78
2024/02/18 08:22:46;;;;;;;8.07;5.30;;;13.60;90.90;;;;;;5044215;28;20404;-77
2024/02/18 08:25:12;;;;;;;8.02;5.30;;;13.50;91.00;;;;;;5027193;28;20497;-76
2024/02/18 08:27:38;;;;;;;7.43;5.18;;;13.60;91.20;;;;;;5025780;28;20028;-78
2024/02/18 08:30:04;;;;;;;7.82;5.60;;;13.50;91.00;;;;;;5009795;28;20065;-77
2024/02/18 08:32:30;;;;;;;7.55;5.20;;;13.50;91.10;;;;;;5037166;28;20034;-78
2024/02/18 08:34:55;;;;;;;8.20;5.57;;;13.60;91.00;;;;;;5028521;28;20711;-77
2024/02/18 08:37:21;;;;;;;8.05;5.28;;;13.60;91.00;;;;;;5028018;28;20025;-78
2024/02/18 08:39:46;;;;;;;7.82;5.00;;;13.50;90.80;;;;;;5029027;28;20027;-76
2024/02/18 08:42:12;;;;;;;7.53;5.07;;;13.50;91.00;;;;;;5027700;28;20030;-78
2024/02/18 08:44:37;;;;;;;7.75;5.07;;;13.50;91.00;;;;;;5028500;28;20017;-77
2024/02/18 08:47:04;;;;;;;8.05;5.53;;;13.50;91.20;;;;;;5028974;28;20065;-78
2024/02/18 08:49:29;;;;;;;7.57;4.82;;;13.50;91.00;;;;;;5028478;28;20029;-78
2024/02/18 08:51:57;;;;;;;8.82;5.72;;;13.50;91.10;;;;;;5030461;28;20060;-79
2024/02/18 08:54:23;;;;;;;8.02;5.10;;;13.50;91.10;;;;;;5029593;28;20018;-78
2024/02/18 08:56:48;;;;;;;8.10;5.20;;;13.50;91.10;;;;;;5028947;28;20056;-79
2024/02/18 08:59:14;;;;;;;8.25;5.43;;;13.50;91.10;;;;;;5028789;28;20406;-77
2024/02/18 09:01:39;;;;;;;7.38;4.78;;;13.50;91.10;;;;;;5028715;28;20064;-78
2024/02/18 09:04:05;;;;;;;8.90;5.22;;;13.50;91.20;;;;;;5028415;28;20086;-78
2024/02/18 09:06:31;;;;;;;7.35;4.93;;;13.50;90.90;;;;;;5028870;28;20036;-77
2024/02/18 09:08:56;;;;;;;7.88;4.97;;;13.50;91.10;;;;;;5027349;28;20076;-79
2024/02/18 09:11:22;;;;;;;21.35;6.45;;;13.50;91.40;;;;;;5025264;28;20029;-77
2024/02/18 09:13:47;;;;;;;28.60;7.35;;;13.50;91.00;;;;;;5025162;28;20137;-79
2024/02/18 09:16:13;;;;;;;51.60;8.77;;;13.50;90.90;;;;;;5025043;28;20557;-78
2024/02/18 09:18:38;;;;;;;53.97;9.20;;;13.50;90.30;;;;;;5024523;28;20091;-78
2024/02/18 09:21:05;;;;;;;41.55;8.27;;;13.50;90.30;;;;;;5026858;28;20029;-79
2024/02/18 09:23:30;;;;;;;42.45;8.60;;;13.50;90.10;;;;;;5041534;28;20105;-77
2024/02/18 09:25:56;;;;;;;39.90;8.43;;;13.50;90.20;;;;;;5026410;28;20239;-77
2024/02/18 09:28:21;;;;;;;34.05;8.57;;;13.50;90.30;;;;;;5029654;28;20033;-78
2024/02/18 09:30:47;;;;;;;33.97;8.40;;;13.50;90.30;;;;;;5029152;28;20026;-77
2024/02/18 09:33:12;;;;;;;31.63;6.97;;;13.50;90.00;;;;;;5029323;28;20061;-77
2024/02/18 09:35:38;;;;;;;30.92;7.63;;;13.50;90.00;;;;;;5029417;28;20030;-78
2024/02/18 09:38:08;;;;;;;23.27;6.15;;;13.50;90.30;;;;;;5028524;28;20489;-82
2024/02/18 09:40:34;;;;;;;27.08;6.88;;;13.50;90.20;;;;;;5027895;28;20111;-79
2024/02/18 09:42:59;;;;;;;28.05;7.25;;;13.50;90.20;;;;;;5027398;28;20021;-78
2024/02/18 09:45:35;;;;;;;28.08;7.60;;;13.50;90.30;;;;;;5025780;28;20037;-79
2024/02/18 09:48:02;;;;;;;21.58;6.53;;;13.50;90.60;;;;;;5028135;28;20097;-79
2024/02/18 09:50:31;;;;;;;32.15;7.55;;;13.50;90.70;;;;;;5028583;28;20026;-78
2024/02/18 09:52:56;;;;;;;24.40;6.40;;;13.50;90.80;;;;;;5029019;28;20036;-78
2024/02/18 09:55:22;;;;;;;35.15;7.60;;;13.50;90.60;;;;;;5028677;28;20041;-77
2024/02/18 09:57:47;;;;;;;83.97;11.88;;;13.50;90.70;;;;;;5026624;28;20551;-78
2024/02/18 10:00:13;;;;;;;108.50;13.68;;;13.40;90.30;;;;;;5028320;28;20026;-77
2024/02/18 10:02:39;;;;;;;122.30;16.02;;;13.40;90.00;;;;;;5026489;28;20661;-77
2024/02/18 10:05:05;;;;;;;133.75;15.13;;;13.30;90.00;;;;;;5027578;28;20029;-76
2024/02/18 10:07:33;;;;;;;132.23;15.10;;;13.30;90.20;;;;;;5026402;28;20029;-78
2024/02/18 10:10:04;;;;;;;135.65;15.32;;;13.40;90.00;;;;;;5027026;28;20401;-80
2024/02/18 10:12:30;;;;;;;100.50;12.82;;;13.40;90.00;;;;;;5026815;28;20601;-78
2024/02/18 10:15:03;;;;;;;112.97;13.07;;;13.40;89.90;;;;;;5028070;28;20033;-77
2024/02/18 10:17:28;;;;;;;99.70;12.95;;;13.50;90.20;;;;;;5028118;28;20038;-77
2024/02/18 10:19:55;;;;;;;87.40;13.13;;;13.50;90.20;;;;;;5027450;28;20503;-78
2024/02/18 10:22:26;;;;;;;93.28;13.45;;;13.50;90.10;;;;;;5028381;28;20028;-77
2024/02/18 10:24:53;;;;;;;83.80;11.85;;;13.50;90.20;;;;;;5027772;28;20171;-78
2024/02/18 10:27:18;;;;;;;81.93;10.90;;;13.50;90.20;;;;;;5026599;28;20033;-77
2024/02/18 10:29:48;;;;;;;78.55;11.05;;;13.50;90.20;;;;;;5044036;28;20067;-79
2024/02/18 10:32:17;;;;;;;66.53;10.93;;;13.50;90.20;;;;;;5043579;28;20029;-79
2024/02/18 10:34:44;;;;;;;60.88;9.25;;;13.50;90.30;;;;;;5045494;28;20500;-78
2024/02/18 10:37:29;;;;;;;77.10;11.75;;;13.50;90.30;;;;;;5028068;28;20486;-78
2024/02/18 10:39:59;;;;;;;62.42;10.50;;;13.50;90.40;;;;;;5044702;28;20033;-79
2024/02/18 10:42:28;;;;;;;65.67;9.63;;;13.50;90.40;;;;;;5044410;28;20056;-78
2024/02/18 10:44:57;;;;;;;63.63;9.40;;;13.50;90.50;;;;;;5026657;28;20034;-79
2024/02/18 10:47:24;;;;;;;60.85;9.63;;;13.50;90.40;;;;;;5025494;28;20029;-78
2024/02/18 10:49:55;;;;;;;60.58;9.43;;;13.50;90.50;;;;;;5023721;28;20086;-80
2024/02/18 10:52:46;;;;;;;66.00;9.77;;;13.50;90.50;;;;;;5025781;28;20037;-79
2024/02/18 10:55:17;;;;;;;53.55;9.00;;;13.50;90.50;;;;;;5025647;28;20033;-79
2024/02/18 10:57:59;;;;;;;50.08;8.50;;;13.50;90.60;;;;;;5024205;28;20083;-79
2024/02/18 11:00:25;;;;;;;;;;;13.50;90.50;;;;;;5024404;28;20117;-80
2024/02/18 11:02:59;;;;;;;46.90;9.00;;;13.50;90.60;;;;;;5024581;28;19932;-80
2024/02/18 11:05:32;;;;;;;46.25;8.68;;;13.50;90.70;;;;;;5017497;28;20037;-77
2024/02/18 11:07:59;;;;;;;40.13;8.32;;;13.50;90.50;;;;;;5023202;28;20409;-78
2024/02/18 11:10:24;;;;;;;44.72;8.38;;;13.50;90.60;;;;;;5024043;28;20045;-78
2024/02/18 11:12:51;;;;;;;42.97;7.43;;;13.50;90.60;;;;;;5023072;28;20033;-79
2024/02/18 11:15:16;;;;;;;45.85;7.32;;;13.50;90.70;;;;;;5023087;28;20035;-78
2024/02/18 11:17:42;;;;;;;41.17;7.25;;;13.50;90.70;;;;;;5024260;28;20029;-79
2024/02/18 11:20:11;;;;;;;38.70;7.07;;;13.50;90.70;;;;;;5023079;28;20026;-79
2024/02/18 11:22:38;;;;;;;29.38;6.40;;;13.50;90.60;;;;;;5023241;28;20026;-77
2024/02/18 11:25:05;;;;;;;40.50;7.32;;;13.50;90.60;;;;;;5021749;28;20417;-77
2024/02/18 11:27:32;;;;;;;31.60;6.18;;;13.50;90.60;;;;;;5047645;28;20387;-77
2024/02/18 11:29:59;;;;;;;32.85;6.97;;;13.50;90.70;;;;;;5021999;28;20040;-77
2024/02/18 11:32:25;;;;;;;29.38;6.30;;;13.50;90.60;;;;;;5022037;28;20489;-77
2024/02/18 11:34:51;;;;;;;29.42;5.97;;;13.50;90.60;;;;;;5022827;28;20035;-78
2024/02/18 11:37:29;;;;;;;24.13;5.78;;;13.50;90.60;;;;;;5024100;28;20052;-78
2024/02/18 11:40:09;;;;;;;26.55;5.82;;;13.50;90.80;;;;;;5026053;28;20025;-78
2024/02/18 11:42:36;;;;;;;27.05;5.80;;;13.50;90.80;;;;;;5027838;28;20025;-78
2024/02/18 11:45:08;;;;;;;22.13;6.00;;;13.50;90.80;;;;;;5027657;28;20029;-78
2024/02/18 11:47:34;;;;;;;24.27;5.70;;;13.50;90.80;;;;;;5028128;28;20038;-79
2024/02/18 11:50:00;;;;;;;31.85;5.75;;;13.40;90.90;;;;;;5027145;28;20095;-78
2024/02/18 11:52:26;;;;;;;23.08;5.65;;;13.40;90.90;;;;;;5022996;28;20029;-78
2024/02/18 11:54:51;;;;;;;30.55;5.75;;;13.50;90.90;;;;;;5028502;28;20120;-78
2024/02/18 11:57:17;;;;;;;19.85;5.22;;;13.50;90.80;;;;;;5033284;28;20020;-80
2024/02/18 11:59:44;;;;;;;22.92;6.40;;;13.50;90.90;;;;;;5046907;28;20071;-77
2024/02/18 12:02:09;;;;;;;23.02;5.22;;;13.50;90.80;;;;;;5047125;28;20025;-79
2024/02/18 12:04:35;;;;;;;20.67;5.20;;;13.50;90.90;;;;;;5047067;28;20107;-77
2024/02/18 12:07:01;;;;;;;22.98;5.57;;;13.50;90.90;;;;;;5047148;28;20547;-78
2024/02/18 12:09:27;;;;;;;25.50;6.85;;;13.50;90.90;;;;;;5041701;28;20071;-78
2024/02/18 12:11:53;;;;;;;18.90;4.65;;;13.50;90.90;;;;;;5026595;28;20479;-77
2024/02/18 12:14:20;;;;;;;19.58;5.03;;;13.50;90.70;;;;;;5027383;28;20065;-79
2024/02/18 12:16:50;;;;;;;16.67;4.68;;;13.40;90.80;;;;;;5027669;28;20559;-78
2024/02/18 12:19:18;;;;;;;20.80;5.35;;;13.50;90.90;;;;;;5025947;28;20033;-77
2024/02/18 12:21:55;;;;;;;23.42;4.95;;;13.40;90.90;;;;;;5025867;28;20555;-78
2024/02/18 12:24:21;;;;;;;14.90;4.63;;;13.50;90.90;;;;;;5027719;28;20025;-80
2024/02/18 12:26:48;;;;;;;15.90;4.35;;;13.50;90.90;;;;;;5027474;28;20402;-79
2024/02/18 12:29:13;;;;;;;17.30;5.05;;;13.50;90.60;;;;;;5027396;28;20048;-78
2024/02/18 12:31:41;;;;;;;20.00;4.63;;;13.50;90.70;;;;;;5025545;28;20049;-79
2024/02/18 12:34:07;;;;;;;17.45;4.88;;;13.50;90.60;;;;;;5025636;28;20032;-78
2024/02/18 12:36:33;;;;;;;18.63;6.57;;;13.50;90.80;;;;;;5025707;28;20037;-78
2024/02/18 12:38:59;;;;;;;12.02;4.30;;;13.40;90.70;;;;;;5027467;28;20022;-79